Time;durP1;ratioP1;P1;durP2;ratioP2;P2;SDS_P1;SDS_P2;PMS_P1;PMS_P2;Temp;Humidity;BMP_temperature;BMP_pressure;BME280_temperature;BME280_humidity;BME280_pressure;Samples;Min_cycle;Max_cycle;Signal;HPM_P1;HPM_P2
2022/08/18 04:01:01;;;;;;;20.42;15.48;;;17.90;99.90;;;;;;5820552;22;20057;-73
2022/08/18 04:03:27;;;;;;;19.30;16.40;;;17.90;99.90;;;;;;5037234;28;20038;-73
2022/08/18 04:05:52;;;;;;;18.73;14.65;;;17.80;99.90;;;;;;5036448;28;20494;-73
2022/08/18 04:08:18;;;;;;;21.73;17.75;;;17.80;99.90;;;;;;5036531;28;20038;-73
2022/08/18 04:10:43;;;;;;;23.45;18.02;;;17.80;99.90;;;;;;5036405;28;20042;-73
2022/08/18 04:13:09;;;;;;;26.75;20.67;;;17.80;99.90;;;;;;5036982;28;20041;-73
2022/08/18 04:15:36;;;;;;;24.95;18.48;;;17.80;99.90;;;;;;5037517;28;20034;-73
2022/08/18 04:18:07;;;;;;;26.58;19.27;;;17.80;99.90;;;;;;5034573;28;20052;-74
2022/08/18 04:20:33;;;;;;;22.73;19.15;;;17.90;99.90;;;;;;5036939;28;20034;-73
2022/08/18 04:22:59;;;;;;;29.15;18.92;;;17.90;99.90;;;;;;5036545;28;20041;-72
2022/08/18 04:25:25;;;;;;;27.35;19.88;;;17.90;99.90;;;;;;5035991;28;20046;-73
2022/08/18 04:27:56;;;;;;;31.35;21.95;;;17.90;99.90;;;;;;5036783;28;20128;-73
2022/08/18 04:30:22;;;;;;;35.45;24.58;;;18.00;99.90;;;;;;5036741;28;20037;-73
2022/08/18 04:32:49;;;;;;;30.67;22.13;;;18.00;99.90;;;;;;5036324;28;20589;-74
2022/08/18 04:35:14;;;;;;;27.63;20.30;;;18.00;99.90;;;;;;5036424;28;20509;-73
2022/08/18 04:37:40;;;;;;;32.05;22.58;;;18.00;99.90;;;;;;5036391;28;20081;-73
2022/08/18 04:40:06;;;;;;;36.28;22.63;;;18.10;99.90;;;;;;5036075;28;20124;-72
2022/08/18 04:42:32;;;;;;;25.48;20.75;;;18.10;99.90;;;;;;5036463;28;20130;-72
2022/08/18 04:44:57;;;;;;;27.35;21.58;;;18.10;99.90;;;;;;5036230;28;20562;-74
2022/08/18 04:47:23;;;;;;;39.88;26.42;;;18.00;99.90;;;;;;5036539;28;20033;-73
2022/08/18 04:49:49;;;;;;;32.85;22.60;;;18.10;99.90;;;;;;5036233;28;20415;-73
2022/08/18 04:55:00;;;;;;;32.42;22.40;;;18.10;99.90;;;;;;5036154;28;20116;-73
2022/08/18 04:57:26;;;;;;;32.35;22.73;;;18.10;99.90;;;;;;5036529;28;20034;-73
2022/08/18 04:59:52;;;;;;;30.40;21.77;;;18.10;99.90;;;;;;5034309;28;20034;-73
2022/08/18 05:02:20;;;;;;;24.35;19.08;;;18.10;99.90;;;;;;5036025;28;20064;-73
2022/08/18 05:04:46;;;;;;;19.33;17.15;;;18.10;99.90;;;;;;5035662;28;20046;-73
2022/08/18 05:07:14;;;;;;;16.08;14.38;;;18.10;99.90;;;;;;5036138;28;20508;-73
2022/08/18 05:09:40;;;;;;;19.67;16.20;;;18.00;99.90;;;;;;5035389;28;20128;-74
2022/08/18 05:12:07;;;;;;;19.55;16.52;;;18.00;99.90;;;;;;5033412;28;20137;-72
2022/08/18 05:14:33;;;;;;;18.92;16.50;;;18.10;99.90;;;;;;5035655;28;20029;-73
2022/08/18 05:17:00;;;;;;;18.00;15.98;;;18.10;99.90;;;;;;5034178;28;20045;-73
2022/08/18 05:19:26;;;;;;;19.63;15.57;;;18.20;99.90;;;;;;5035581;28;20033;-73
2022/08/18 05:21:57;;;;;;;16.75;14.73;;;18.20;99.90;;;;;;5035524;28;20575;-74
2022/08/18 05:24:24;;;;;;;15.23;13.65;;;18.20;99.90;;;;;;5035491;28;20038;-73
2022/08/18 05:26:51;;;;;;;17.13;15.32;;;18.30;99.90;;;;;;5035668;28;20041;-73
2022/08/18 05:29:20;;;;;;;17.63;15.73;;;18.30;99.90;;;;;;5034644;28;20033;-74
2022/08/18 05:31:48;;;;;;;15.38;13.75;;;18.30;99.90;;;;;;5031646;28;20045;-75
2022/08/18 05:34:15;;;;;;;17.80;15.90;;;18.30;99.90;;;;;;5035184;28;20077;-74
2022/08/18 05:36:49;;;;;;;21.75;17.33;;;18.30;99.90;;;;;;5034124;28;20135;-74
2022/08/18 05:39:17;;;;;;;18.55;16.55;;;18.40;99.90;;;;;;5035514;28;20037;-74
2022/08/18 05:42:00;;;;;;;17.20;15.35;;;18.40;99.90;;;;;;5034412;28;20057;-74
2022/08/18 05:44:31;;;;;;;21.92;17.02;;;18.40;99.90;;;;;;5032874;28;20555;-74
2022/08/18 05:47:21;;;;;;;18.60;16.25;;;18.30;99.90;;;;;;5037334;28;20041;-74
2022/08/18 05:49:47;;;;;;;18.35;15.27;;;18.40;99.90;;;;;;5041569;28;20069;-73
2022/08/18 05:52:39;;;;;;;28.10;20.63;;;18.40;99.90;;;;;;5034187;28;20041;-74
2022/08/18 05:58:03;;;;;;;16.88;15.13;;;18.50;99.90;;;;;;5036189;28;21014;-75
2022/08/18 06:00:29;;;;;;;17.08;14.55;;;18.60;99.90;;;;;;5027020;28;20038;-75
2022/08/18 06:02:57;;;;;;;24.02;15.52;;;18.60;99.90;;;;;;5032494;28;20176;-74
2022/08/18 06:05:31;;;;;;;16.60;14.85;;;18.60;99.90;;;;;;5026624;28;20034;-74
2022/08/18 06:08:04;;;;;;;19.10;15.90;;;18.60;99.90;;;;;;5023139;28;20459;-75
2022/08/18 06:10:30;;;;;;;17.52;15.70;;;18.70;99.90;;;;;;5027855;28;20423;-74
2022/08/18 06:12:59;;;;;;;18.92;15.80;;;18.90;99.90;;;;;;5024430;28;20033;-75
2022/08/18 06:15:50;;;;;;;13.98;12.57;;;19.00;99.90;;;;;;5024038;28;20048;-74
2022/08/18 06:18:36;;;;;;;14.00;12.50;;;19.10;99.90;;;;;;5027959;28;20054;-75
2022/08/18 06:21:11;;;;;;;13.48;12.18;;;19.30;99.90;;;;;;5022851;28;20121;-76
2022/08/18 06:24:04;;;;;;;12.98;11.57;;;19.40;99.90;;;;;;5024639;28;20470;-75
2022/08/18 06:26:49;;;;;;;11.65;10.57;;;19.40;99.90;;;;;;5023797;28;20072;-75
2022/08/18 06:29:46;;;;;;;12.52;11.23;;;19.40;99.90;;;;;;5034170;28;20033;-75
2022/08/18 06:32:27;;;;;;;13.13;11.82;;;19.30;99.90;;;;;;5025184;28;20120;-75
2022/08/18 06:35:21;;;;;;;12.30;11.07;;;19.40;99.90;;;;;;5023753;28;20093;-75
2022/08/18 06:40:46;;;;;;;12.32;10.90;;;19.50;99.90;;;;;;5033781;28;20504;-75
2022/08/18 06:43:15;;;;;;;14.07;11.63;;;19.40;99.90;;;;;;5034426;28;20042;-73
2022/08/18 06:45:44;;;;;;;12.50;11.25;;;19.20;99.90;;;;;;5025431;28;20512;-73
2022/08/18 06:48:53;;;;;;;13.45;12.15;;;19.10;99.90;;;;;;5023948;28;20045;-73
2022/08/18 06:51:21;;;;;;;12.18;10.88;;;19.10;99.90;;;;;;5022352;28;20459;-74
2022/08/18 06:54:24;;;;;;;12.50;11.13;;;19.10;99.90;;;;;;5047584;28;20124;-74
2022/08/18 06:56:51;;;;;;;13.02;10.43;;;19.10;99.90;;;;;;5023952;28;20058;-74
2022/08/18 06:59:31;;;;;;;11.85;10.65;;;19.10;99.90;;;;;;5014479;28;20558;-74
2022/08/18 07:02:13;;;;;;;11.85;10.65;;;19.20;99.90;;;;;;5014012;28;20097;-74
2022/08/18 07:04:41;;;;;;;12.20;9.57;;;19.30;99.90;;;;;;5014475;28;20037;-74
2022/08/18 07:07:30;;;;;;;11.23;10.05;;;19.40;99.90;;;;;;5014790;28;20035;-74
2022/08/18 07:09:56;;;;;;;10.15;9.15;;;19.40;99.90;;;;;;5014279;28;20034;-74
2022/08/18 07:12:24;;;;;;;10.23;8.85;;;19.40;99.90;;;;;;5014479;28;20038;-74
2022/08/18 07:14:56;;;;;;;9.43;8.52;;;19.70;99.90;;;;;;5026868;28;20041;-74
2022/08/18 07:17:36;;;;;;;9.13;8.23;;;19.80;99.90;;;;;;5014899;28;20038;-74
2022/08/18 07:20:09;;;;;;;9.40;8.35;;;20.10;99.90;;;;;;5013135;28;20109;-74
2022/08/18 07:23:03;;;;;;;9.30;8.40;;;20.10;99.90;;;;;;5014339;28;20041;-73
2022/08/18 07:25:51;;;;;;;8.43;7.63;;;20.20;99.90;;;;;;5012714;28;20057;-73
2022/08/18 07:28:35;;;;;;;10.15;7.10;;;20.10;99.90;;;;;;5013994;28;20026;-73
2022/08/18 07:31:11;;;;;;;9.27;7.85;;;20.20;99.90;;;;;;5012798;28;20041;-73
2022/08/18 07:33:38;;;;;;;8.45;7.20;;;20.10;99.90;;;;;;5014111;28;20035;-73
2022/08/18 07:36:08;;;;;;;8.10;7.30;;;19.90;99.90;;;;;;5014011;28;20030;-73
2022/08/18 07:38:41;;;;;;;12.10;7.97;;;20.00;99.90;;;;;;5014147;28;20063;-73
2022/08/18 07:41:25;;;;;;;9.27;6.75;;;20.10;99.90;;;;;;5014092;28;20039;-75
2022/08/18 07:44:11;;;;;;;10.68;7.57;;;20.20;99.90;;;;;;5014221;28;20026;-74
2022/08/18 07:46:41;;;;;;;12.50;7.40;;;20.40;99.90;;;;;;5014420;28;20030;-76
2022/08/18 07:49:07;;;;;;;10.95;7.80;;;20.50;99.90;;;;;;5013892;28;20030;-73
2022/08/18 07:51:51;;;;;;;11.18;7.43;;;20.80;99.90;;;;;;5031426;28;20105;-72
2022/08/18 07:54:45;;;;;;;9.50;7.45;;;20.80;99.90;;;;;;5033470;28;20034;-72
2022/08/18 07:57:42;;;;;;;11.18;7.32;;;20.90;99.90;;;;;;5032452;28;20042;-73
2022/08/18 08:00:11;;;;;;;9.32;7.95;;;21.10;99.90;;;;;;5025066;28;20044;-72
2022/08/18 08:03:15;;;;;;;9.00;7.25;;;21.40;99.90;;;;;;5021880;28;20484;-73
2022/08/18 08:05:47;;;;;;;9.73;7.03;;;21.40;99.90;;;;;;4975572;28;20061;-75
2022/08/18 08:08:43;;;;;;;8.65;7.43;;;21.60;99.90;;;;;;4991556;28;20039;-74
2022/08/18 08:11:26;;;;;;;9.02;7.20;;;21.60;99.90;;;;;;5015314;28;20191;-75
2022/08/18 08:13:58;;;;;;;9.27;7.38;;;21.50;99.90;;;;;;5021901;28;20055;-74
2022/08/18 08:16:46;;;;;;;8.52;7.43;;;21.30;99.90;;;;;;5037095;28;20034;-73
2022/08/18 08:19:33;;;;;;;12.05;8.18;;;21.10;99.90;;;;;;5039635;28;20532;-75
2022/08/18 08:22:11;;;;;;;12.32;7.55;;;21.00;99.90;;;;;;5040609;28;20151;-75
2022/08/18 08:25:18;;;;;;;11.25;8.45;;;20.90;99.90;;;;;;5034754;28;20069;-75
2022/08/18 08:28:02;;;;;;;11.95;7.95;;;20.80;99.90;;;;;;5036406;28;20041;-73
2022/08/18 08:30:32;;;;;;;9.32;8.02;;;20.60;99.90;;;;;;5034840;28;20109;-74
2022/08/18 08:33:29;;;;;;;11.50;8.00;;;20.50;99.90;;;;;;5030681;28;20113;-74
2022/08/18 08:36:06;;;;;;;9.88;8.65;;;20.50;99.90;;;;;;5030415;28;20113;-73
2022/08/18 08:38:50;;;;;;;9.23;8.27;;;20.40;99.90;;;;;;5029502;28;20029;-74
2022/08/18 08:41:25;;;;;;;10.43;8.45;;;20.30;99.90;;;;;;5016867;28;20034;-72
2022/08/18 08:44:21;;;;;;;10.63;8.65;;;20.30;99.90;;;;;;5035993;28;20096;-74
2022/08/18 08:47:09;;;;;;;10.02;9.00;;;20.40;99.90;;;;;;5021204;28;20134;-72
2022/08/18 08:49:41;;;;;;;11.95;8.13;;;20.50;99.90;;;;;;5036710;28;20044;-75
2022/08/18 08:52:48;;;;;;;10.63;8.70;;;20.50;99.90;;;;;;5036754;28;20038;-76
2022/08/18 08:55:24;;;;;;;10.35;8.88;;;20.60;99.90;;;;;;5036158;28;20050;-76
2022/08/18 08:58:15;;;;;;;8.85;7.95;;;20.90;99.90;;;;;;5034352;28;20052;-79
2022/08/18 09:00:42;;;;;;;11.15;8.55;;;20.50;99.90;;;;;;5037522;28;20034;-76
2022/08/18 09:03:17;;;;;;;8.80;7.60;;;20.50;99.90;;;;;;5037933;28;20113;-74
2022/08/18 09:05:51;;;;;;;9.70;8.02;;;20.50;99.90;;;;;;5037262;28;20049;-74
2022/08/18 09:08:42;;;;;;;9.10;7.80;;;20.50;99.90;;;;;;5036087;28;20030;-74
2022/08/18 09:11:42;;;;;;;9.80;8.32;;;20.50;99.90;;;;;;5036491;28;20491;-74
2022/08/18 09:14:22;;;;;;;9.00;8.10;;;20.60;99.90;;;;;;5027700;28;20045;-73
2022/08/18 09:16:48;;;;;;;8.25;7.45;;;20.90;99.90;;;;;;5036164;28;20038;-74
2022/08/18 09:19:51;;;;;;;9.05;8.20;;;21.10;99.90;;;;;;5036789;28;20034;-76
2022/08/18 09:22:38;;;;;;;9.85;7.90;;;21.40;99.90;;;;;;5036994;28;20057;-81
2022/08/18 09:25:11;;;;;;;10.18;8.00;;;21.40;99.90;;;;;;5034806;28;20038;-73
2022/08/18 09:27:43;;;;;;;10.00;9.00;;;21.50;99.90;;;;;;5034584;28;20034;-73
2022/08/18 09:30:43;;;;;;;13.13;8.75;;;21.60;99.90;;;;;;5035774;28;20065;-73
2022/08/18 09:33:33;;;;;;;15.10;10.23;;;21.60;99.90;;;;;;5036136;28;20026;-73
2022/08/18 09:36:16;;;;;;;9.88;8.88;;;21.80;99.90;;;;;;5037577;28;20883;-73
2022/08/18 09:42:09;;;;;;;11.35;8.20;;;22.60;99.90;;;;;;5044249;28;20050;-73
2022/08/18 09:44:58;;;;;;;9.80;8.57;;;23.40;99.90;;;;;;5032001;28;20052;-73
2022/08/18 09:47:27;;;;;;;8.55;7.50;;;23.60;99.90;;;;;;5044291;28;20114;-74
2022/08/18 09:49:54;;;;;;;14.18;8.98;;;23.70;99.90;;;;;;5055732;28;20491;-73
2022/08/18 09:52:20;;;;;;;11.57;7.82;;;23.90;99.90;;;;;;5042913;28;20049;-73
2022/08/18 09:54:58;;;;;;;11.35;8.60;;;24.00;99.90;;;;;;5039960;28;20034;-73
2022/08/18 09:57:32;;;;;;;12.20;8.02;;;24.00;99.90;;;;;;5024247;28;20104;-73
2022/08/18 10:00:06;;;;;;;11.38;8.70;;;23.90;99.90;;;;;;5053604;28;20045;-75
2022/08/18 10:02:31;;;;;;;11.82;8.23;;;23.80;99.90;;;;;;5040216;28;20084;-75
2022/08/18 10:07:42;;;;;;;9.75;8.85;;;23.70;99.90;;;;;;5041003;28;20132;-73
2022/08/18 10:10:30;;;;;;;12.07;9.65;;;23.90;99.90;;;;;;5055165;28;20092;-73
2022/08/18 10:13:04;;;;;;;10.50;9.05;;;23.70;99.90;;;;;;5034328;28;20041;-73
2022/08/18 10:15:56;;;;;;;11.90;9.35;;;23.80;99.90;;;;;;5055338;28;20021;-73
2022/08/18 10:18:47;;;;;;;12.90;9.93;;;23.80;99.90;;;;;;5046603;28;21206;-73
2022/08/18 10:21:17;;;;;;;10.70;9.27;;;23.60;99.90;;;;;;5053642;28;20045;-72
2022/08/18 10:24:12;;;;;;;11.77;9.75;;;24.10;99.90;;;;;;5046714;28;20499;-72
2022/08/18 10:26:37;;;;;;;12.90;10.00;;;24.50;99.90;;;;;;5042880;28;20041;-73
2022/08/18 10:29:06;;;;;;;14.13;10.05;;;24.80;99.90;;;;;;5040759;28;20164;-73
2022/08/18 10:31:55;;;;;;;14.25;11.43;;;24.80;99.90;;;;;;5038849;28;20101;-73
2022/08/18 10:34:39;;;;;;;12.50;10.38;;;24.80;99.90;;;;;;5027678;28;20026;-73
2022/08/18 10:37:25;;;;;;;17.13;13.13;;;25.10;99.90;;;;;;5016624;28;20034;-73
2022/08/18 10:39:55;;;;;;;15.00;12.63;;;24.80;99.90;;;;;;5032593;28;20583;-73
2022/08/18 10:42:25;;;;;;;13.15;10.75;;;24.50;99.90;;;;;;5034328;28;20459;-72
2022/08/18 10:44:59;;;;;;;20.15;13.82;;;24.50;99.90;;;;;;5034691;28;20045;-72
2022/08/18 10:47:28;;;;;;;14.90;11.30;;;25.10;99.90;;;;;;5048526;28;20029;-74
2022/08/18 10:49:54;;;;;;;13.18;11.82;;;25.50;99.90;;;;;;5032721;28;20031;-75
2022/08/18 10:52:34;;;;;;;16.58;11.68;;;25.90;99.90;;;;;;5037319;28;20062;-75
2022/08/18 10:55:12;;;;;;;14.25;11.60;;;25.50;99.90;;;;;;5036654;28;20041;-75
2022/08/18 10:58:01;;;;;;;13.05;11.68;;;25.80;99.90;;;;;;5035058;28;20030;-75
2022/08/18 11:00:59;;;;;;;12.60;11.30;;;25.60;99.90;;;;;;5034523;28;20038;-75
2022/08/18 11:03:43;;;;;;;13.32;10.38;;;25.90;99.90;;;;;;5034151;28;20107;-74
2022/08/18 11:06:15;;;;;;;15.80;10.60;;;26.50;99.90;;;;;;5020094;28;20037;-76
2022/08/18 11:08:47;;;;;;;11.25;8.88;;;26.50;99.90;;;;;;5033188;28;20488;-74
2022/08/18 11:11:19;;;;;;;11.07;9.68;;;26.70;99.90;;;;;;5034450;28;20488;-73
2022/08/18 11:13:59;;;;;;;13.23;8.48;;;27.00;99.90;;;;;;5034691;28;20042;-73
2022/08/18 11:16:30;;;;;;;8.73;7.82;;;27.30;99.90;;;;;;5035026;28;20498;-73
2022/08/18 11:19:06;;;;;;;9.48;7.88;;;27.20;99.90;;;;;;5027037;28;20147;-73
2022/08/18 11:21:42;;;;;;;8.80;7.90;;;27.10;99.90;;;;;;5033499;28;20492;-71
2022/08/18 11:24:14;;;;;;;14.30;11.15;;;27.30;99.90;;;;;;5024761;28;20196;-71
2022/08/18 11:26:44;;;;;;;22.10;14.75;;;27.50;99.90;;;;;;5033223;28;20038;-73
2022/08/18 11:29:30;;;;;;;12.10;9.27;;;27.60;99.90;;;;;;5033811;28;20042;-70
2022/08/18 11:31:59;;;;;;;10.27;8.82;;;27.90;98.80;;;;;;5034212;28;20042;-70
2022/08/18 11:34:35;;;;;;;10.90;8.98;;;27.80;98.70;;;;;;5033717;28;20496;-71
2022/08/18 11:37:07;;;;;;;9.90;8.75;;;27.80;98.90;;;;;;5034623;28;20045;-72
2022/08/18 11:39:40;;;;;;;9.77;7.95;;;28.40;97.30;;;;;;5033835;28;20088;-70
2022/08/18 11:42:08;;;;;;;8.60;7.80;;;28.60;97.60;;;;;;5033978;28;20046;-70
2022/08/18 11:44:37;;;;;;;10.13;7.85;;;29.00;97.40;;;;;;5036974;28;20125;-71
2022/08/18 11:47:16;;;;;;;9.88;8.15;;;29.10;95.90;;;;;;5037579;28;20046;-68
2022/08/18 11:49:55;;;;;;;8.43;7.65;;;28.80;96.80;;;;;;5018690;28;20030;-68
2022/08/18 11:52:27;;;;;;;10.98;7.93;;;28.90;94.60;;;;;;5037138;28;20092;-70
2022/08/18 11:55:00;;;;;;;9.45;8.27;;;29.20;93.90;;;;;;5035145;28;20042;-69
2022/08/18 11:57:53;;;;;;;8.25;7.43;;;29.20;93.70;;;;;;5037543;28;20037;-69
2022/08/18 12:00:37;;;;;;;11.90;6.68;;;29.40;92.80;;;;;;5036040;28;20180;-69
2022/08/18 12:03:07;;;;;;;10.18;7.07;;;30.20;92.20;;;;;;5037468;28;20129;-69
2022/08/18 12:05:55;;;;;;;8.57;6.97;;;30.10;88.80;;;;;;5036676;28;20041;-72
2022/08/18 12:08:35;;;;;;;6.72;6.13;;;29.90;89.50;;;;;;5037578;28;20030;-71
2022/08/18 12:11:47;;;;;;;10.00;6.97;;;29.60;90.70;;;;;;5036970;28;20042;-71
2022/08/18 12:14:20;;;;;;;7.57;6.90;;;29.90;90.30;;;;;;5036853;28;20388;-71
2022/08/18 12:16:46;;;;;;;7.22;6.63;;;30.10;90.70;;;;;;5037005;28;20100;-71
2022/08/18 12:19:14;;;;;;;12.27;7.00;;;30.10;89.10;;;;;;5036846;28;20122;-71
2022/08/18 12:21:59;;;;;;;7.38;6.63;;;29.80;88.40;;;;;;5036667;28;20415;-71
2022/08/18 12:24:32;;;;;;;7.00;6.38;;;30.10;87.50;;;;;;5036827;28;20038;-71
2022/08/18 12:26:58;;;;;;;7.25;5.90;;;29.80;85.60;;;;;;5039082;28;20113;-71
2022/08/18 12:29:25;;;;;;;7.10;6.40;;;30.20;86.00;;;;;;5039202;28;20129;-72
2022/08/18 12:31:53;;;;;;;8.00;6.13;;;30.60;86.20;;;;;;5054934;28;20041;-72
2022/08/18 12:34:24;;;;;;;8.50;6.72;;;31.10;86.40;;;;;;5037321;28;20034;-72
2022/08/18 12:36:52;;;;;;;107.50;9.38;;;31.30;80.70;;;;;;5050380;28;20025;-72
2022/08/18 12:39:18;;;;;;;7.82;6.00;;;31.20;83.40;;;;;;5039998;28;20029;-72
2022/08/18 12:41:44;;;;;;;8.50;5.80;;;30.90;82.80;;;;;;5041450;28;20052;-71
2022/08/18 12:44:10;;;;;;;6.53;5.93;;;31.00;82.40;;;;;;5025950;28;20040;-71
2022/08/18 12:46:35;;;;;;;7.13;6.10;;;31.30;78.70;;;;;;5031871;28;20042;-71
2022/08/18 12:49:03;;;;;;;6.32;5.75;;;31.00;78.30;;;;;;5030976;28;20443;-71
2022/08/18 12:51:29;;;;;;;6.82;6.22;;;31.30;79.80;;;;;;5037374;28;20040;-71
2022/08/18 12:53:55;;;;;;;8.18;6.10;;;31.90;78.20;;;;;;5042742;28;20040;-71
2022/08/18 12:56:29;;;;;;;9.00;5.78;;;32.30;76.30;;;;;;5024389;28;20485;-71
2022/08/18 12:58:56;;;;;;;6.57;5.97;;;31.80;76.50;;;;;;5022608;28;20581;-71
2022/08/18 13:01:23;;;;;;;7.75;5.75;;;31.80;76.40;;;;;;5030503;28;20057;-71
2022/08/18 13:03:52;;;;;;;6.72;6.03;;;31.00;74.80;;;;;;5035876;28;20037;-71
2022/08/18 13:06:18;;;;;;;8.57;6.07;;;30.30;78.80;;;;;;5035246;28;20041;-71
2022/08/18 13:08:44;;;;;;;6.30;5.60;;;30.10;79.00;;;;;;5035679;28;20041;-71
2022/08/18 13:11:10;;;;;;;7.32;5.78;;;30.60;80.10;;;;;;5056044;28;20036;-71
2022/08/18 13:13:39;;;;;;;5.72;5.22;;;30.70;77.00;;;;;;5039002;28;20048;-71
2022/08/18 13:16:07;;;;;;;6.53;5.70;;;30.70;78.70;;;;;;5035796;28;20452;-71
2022/08/18 13:18:33;;;;;;;8.20;5.80;;;30.60;76.90;;;;;;5036056;28;20072;-71
2022/08/18 13:21:00;;;;;;;6.35;5.75;;;31.00;77.50;;;;;;5035515;28;20100;-71
2022/08/18 13:23:27;;;;;;;6.15;5.57;;;31.20;74.80;;;;;;5035714;28;20121;-71
2022/08/18 13:25:53;;;;;;;6.85;5.30;;;31.50;76.00;;;;;;5037109;28;20137;-71
2022/08/18 13:28:18;;;;;;;8.07;5.80;;;32.30;73.50;;;;;;5045202;28;20049;-72
2022/08/18 13:30:45;;;;;;;6.10;5.55;;;32.70;71.90;;;;;;5045549;28;20081;-72
2022/08/18 13:33:11;;;;;;;6.25;5.65;;;32.10;71.60;;;;;;5035763;28;20038;-74
2022/08/18 13:35:36;;;;;;;7.60;5.72;;;31.30;74.60;;;;;;5025237;28;20050;-71
2022/08/18 13:38:04;;;;;;;7.22;5.55;;;30.30;74.70;;;;;;5016337;28;20152;-74
2022/08/18 13:40:30;;;;;;;6.05;5.43;;;30.50;77.80;;;;;;5022013;28;20520;-71
2022/08/18 13:42:55;;;;;;;6.90;5.50;;;31.30;75.10;;;;;;5035455;28;20048;-71
2022/08/18 13:45:21;;;;;;;5.60;4.95;;;32.00;71.50;;;;;;5037858;28;20274;-71
2022/08/18 13:47:48;;;;;;;6.45;5.22;;;32.50;72.00;;;;;;5041052;28;20129;-71
2022/08/18 13:50:14;;;;;;;5.85;5.35;;;32.60;69.60;;;;;;5051033;28;20092;-71
2022/08/18 13:52:40;;;;;;;5.95;5.35;;;33.20;70.60;;;;;;5038468;28;20112;-71
2022/08/18 13:55:14;;;;;;;5.60;5.10;;;33.40;67.10;;;;;;5038427;28;20787;-72
2022/08/18 13:57:46;;;;;;;13.15;5.53;;;34.00;67.00;;;;;;5051488;28;20042;-71
2022/08/18 14:00:15;;;;;;;6.35;5.18;;;34.80;65.00;;;;;;5051730;28;20038;-71
2022/08/18 14:02:40;;;;;;;6.00;5.40;;;34.70;65.50;;;;;;5038103;28;20156;-74
2022/08/18 14:05:08;;;;;;;6.47;5.35;;;34.70;63.20;;;;;;5048030;28;20503;-74
2022/08/18 14:07:35;;;;;;;7.45;5.30;;;35.30;62.70;;;;;;5054217;28;20037;-74
2022/08/18 14:10:02;;;;;;;6.35;5.40;;;34.70;61.50;;;;;;5054860;28;20030;-74
2022/08/18 14:12:28;;;;;;;5.95;5.28;;;33.30;64.20;;;;;;5044606;28;20491;-73
2022/08/18 14:14:54;;;;;;;5.50;5.05;;;32.30;67.80;;;;;;5034958;28;20152;-71
2022/08/18 14:17:21;;;;;;;6.05;5.43;;;31.70;68.20;;;;;;5034862;28;20435;-71
2022/08/18 14:27:59;;;;;;;6.22;5.63;;;32.30;69.30;;;;;;5019548;28;20034;-71
2022/08/18 14:30:25;;;;;;;6.47;5.32;;;32.00;69.00;;;;;;5041081;28;20021;-72
2022/08/18 14:32:52;;;;;;;6.95;5.85;;;32.10;68.60;;;;;;5040916;28;20041;-71
2022/08/18 14:35:18;;;;;;;5.70;5.20;;;31.90;68.70;;;;;;5037233;28;20504;-72
2022/08/18 14:37:44;;;;;;;6.00;5.40;;;31.50;71.20;;;;;;5033011;28;20044;-69
2022/08/18 14:40:10;;;;;;;5.95;5.45;;;31.30;70.70;;;;;;5034934;28;20041;-71
2022/08/18 14:42:38;;;;;;;6.70;5.13;;;32.50;67.80;;;;;;5032335;28;20053;-70
2022/08/18 14:45:05;;;;;;;6.22;5.35;;;34.00;65.00;;;;;;5034549;28;20543;-71
2022/08/18 14:47:31;;;;;;;5.95;5.40;;;34.80;63.80;;;;;;5038530;28;20083;-70
2022/08/18 14:49:57;;;;;;;6.85;5.30;;;35.70;59.70;;;;;;5054629;28;20032;-70
2022/08/18 14:52:24;;;;;;;6.25;5.47;;;36.20;59.20;;;;;;5040902;28;20048;-70
2022/08/18 14:54:50;;;;;;;5.45;4.95;;;37.30;57.60;;;;;;5034290;28;20034;-70
2022/08/18 14:57:16;;;;;;;7.22;5.25;;;37.90;55.30;;;;;;5033186;28;20141;-70
2022/08/18 14:59:43;;;;;;;5.95;5.40;;;37.00;56.20;;;;;;5034558;28;20025;-70
2022/08/18 15:02:10;;;;;;;6.13;5.60;;;36.60;55.70;;;;;;5033598;28;20045;-70
2022/08/18 15:04:36;;;;;;;8.40;5.03;;;34.60;59.80;;;;;;5030108;28;20120;-70
2022/08/18 15:07:03;;;;;;;17.52;5.63;;;33.30;63.40;;;;;;5034512;28;20554;-70
2022/08/18 15:09:29;;;;;;;17.65;6.60;;;32.70;63.00;;;;;;5034388;28;20045;-70
2022/08/18 15:11:58;;;;;;;5.28;4.78;;;31.90;65.70;;;;;;5033933;28;20037;-70
2022/08/18 15:14:33;;;;;;;7.20;4.97;;;30.90;67.80;;;;;;5033873;28;20177;-70
2022/08/18 15:17:01;;;;;;;9.23;5.60;;;30.50;69.50;;;;;;5035796;28;20034;-69
2022/08/18 15:19:26;;;;;;;6.45;5.05;;;30.20;70.40;;;;;;5041249;28;20044;-71
2022/08/18 15:27:35;;;;;;;5.85;5.35;;;31.40;67.20;;;;;;5037849;28;20038;-71
2022/08/18 15:30:03;;;;;;;5.80;5.20;;;31.90;67.40;;;;;;5037990;28;20030;-70
2022/08/18 15:32:29;;;;;;;5.60;4.72;;;32.00;66.50;;;;;;5037052;28;20045;-69
2022/08/18 15:34:55;;;;;;;5.85;5.18;;;32.30;65.30;;;;;;5037681;28;20126;-70
2022/08/18 15:37:20;;;;;;;5.70;5.20;;;31.90;68.20;;;;;;5037619;28;20172;-70
2022/08/18 15:39:47;;;;;;;5.28;4.75;;;31.80;65.70;;;;;;5036584;28;20037;-71
2022/08/18 15:42:13;;;;;;;5.95;5.43;;;32.70;64.70;;;;;;5036282;28;20415;-70
2022/08/18 15:44:39;;;;;;;5.30;4.80;;;33.20;64.70;;;;;;5037378;28;20046;-71
2022/08/18 15:47:06;;;;;;;8.10;4.88;;;33.00;61.70;;;;;;5037840;28;20030;-71
2022/08/18 15:49:31;;;;;;;8.70;5.25;;;32.20;63.70;;;;;;5037858;28;20160;-71
2022/08/18 15:51:57;;;;;;;9.38;5.18;;;31.80;64.40;;;;;;5036634;28;20033;-71
2022/08/18 15:54:23;;;;;;;8.77;5.07;;;31.50;66.80;;;;;;5049922;28;20402;-71
2022/08/18 15:56:48;;;;;;;7.72;5.00;;;31.70;66.80;;;;;;5056588;28;20034;-71
2022/08/18 15:59:14;;;;;;;7.55;5.10;;;32.00;65.20;;;;;;5037756;28;20549;-71
2022/08/18 16:01:40;;;;;;;12.30;5.13;;;32.60;65.30;;;;;;5036935;28;20508;-72
2022/08/18 16:04:06;;;;;;;5.80;5.10;;;33.20;62.50;;;;;;5037367;28;20145;-71
2022/08/18 16:06:35;;;;;;;7.13;5.30;;;33.50;63.00;;;;;;5037373;28;20041;-71
2022/08/18 16:09:02;;;;;;;5.65;5.15;;;34.00;61.20;;;;;;5035855;28;20037;-71
2022/08/18 16:11:28;;;;;;;6.60;5.10;;;34.20;60.10;;;;;;5037629;28;20049;-71
2022/08/18 16:13:54;;;;;;;6.85;5.03;;;34.00;59.80;;;;;;5037118;28;20044;-71
2022/08/18 16:16:22;;;;;;;5.65;5.15;;;34.10;61.70;;;;;;5088451;22;20405;-77
2022/08/18 16:18:48;;;;;;;6.18;5.30;;;33.60;60.90;;;;;;5076698;28;20061;-77
2022/08/18 16:21:18;;;;;;;7.45;5.75;;;33.40;61.00;;;;;;5077650;28;20128;-78
2022/08/18 16:23:47;;;;;;;7.30;5.38;;;34.10;61.10;;;;;;5079393;28;20032;-79
2022/08/18 16:26:15;;;;;;;6.13;5.55;;;34.60;60.10;;;;;;5065417;28;20817;-79
2022/08/18 16:28:42;;;;;;;6.70;6.10;;;34.40;61.40;;;;;;5057951;28;20091;-73
2022/08/18 16:31:08;;;;;;;8.05;6.13;;;33.90;62.90;;;;;;5055419;28;20038;-73
2022/08/18 16:33:34;;;;;;;7.05;6.38;;;33.90;64.60;;;;;;5044948;28;20045;-69
2022/08/18 16:36:08;;;;;;;7.97;6.25;;;33.80;63.90;;;;;;5056452;28;20033;-75
2022/08/18 16:38:35;;;;;;;7.00;6.30;;;33.60;65.90;;;;;;5056750;28;20037;-72
2022/08/18 16:41:08;;;;;;;10.32;6.93;;;33.30;65.10;;;;;;5056370;28;20082;-72
2022/08/18 16:43:35;;;;;;;8.10;7.43;;;32.60;68.40;;;;;;5054855;28;20045;-71
2022/08/18 16:46:02;;;;;;;8.30;7.45;;;31.80;69.30;;;;;;5052583;28;20044;-72
2022/08/18 16:48:28;;;;;;;7.45;6.75;;;31.60;70.40;;;;;;5037611;28;20037;-72
2022/08/18 16:50:54;;;;;;;7.82;7.03;;;31.70;70.00;;;;;;5036732;28;20034;-74
2022/08/18 16:53:19;;;;;;;9.77;7.20;;;31.40;70.50;;;;;;5035048;28;20029;-73
2022/08/18 16:55:45;;;;;;;7.70;6.95;;;31.00;71.30;;;;;;5041430;28;20045;-70
2022/08/18 17:06:27;;;;;;;8.00;6.90;;;28.60;77.80;;;;;;5034419;28;20033;-71
2022/08/18 17:08:54;;;;;;;7.93;7.13;;;28.30;79.80;;;;;;5052929;28;20053;-71
2022/08/18 17:11:21;;;;;;;8.55;7.50;;;28.30;78.80;;;;;;5055964;28;20047;-71
2022/08/18 17:13:48;;;;;;;9.77;8.13;;;28.00;79.10;;;;;;5055877;28;20036;-71
2022/08/18 17:16:16;;;;;;;11.45;7.72;;;27.80;80.00;;;;;;5055034;28;20557;-71
2022/08/18 17:18:42;;;;;;;10.57;7.70;;;27.60;79.90;;;;;;5056088;28;20071;-72
2022/08/18 17:21:11;;;;;;;9.40;7.47;;;27.50;80.90;;;;;;5055631;28;20073;-70
2022/08/18 17:23:37;;;;;;;10.05;7.70;;;27.20;80.50;;;;;;5055690;28;20076;-72
2022/08/18 17:26:05;;;;;;;7.70;6.90;;;27.00;80.60;;;;;;5054257;28;20033;-71
2022/08/18 17:28:43;;;;;;;7.63;6.90;;;26.90;80.50;;;;;;5055995;28;20036;-71
2022/08/18 17:31:10;;;;;;;7.82;7.10;;;26.70;80.20;;;;;;5055728;28;20036;-72
2022/08/18 17:33:39;;;;;;;7.97;6.93;;;26.60;81.70;;;;;;5054199;28;20061;-72
2022/08/18 17:36:07;;;;;;;9.70;6.53;;;26.40;82.10;;;;;;5055130;28;20036;-71
2022/08/18 17:38:53;;;;;;;8.68;7.40;;;26.30;82.30;;;;;;5055707;28;20033;-72
2022/08/18 17:41:19;;;;;;;8.13;7.32;;;26.10;82.80;;;;;;5054368;28;20037;-71
2022/08/18 17:43:46;;;;;;;7.90;7.10;;;26.00;83.90;;;;;;5055646;28;20091;-71